Time;durP1;ratioP1;P1;durP2;ratioP2;P2;SDS_P1;SDS_P2;PMS_P1;PMS_P2;Temp;Humidity;BMP_temperature;BMP_pressure;BME280_temperature;BME280_humidity;BME280_pressure;Samples;Min_cycle;Max_cycle;Signal;HPM_P1;HPM_P2
2021/03/07 00:00:58;;;;;;;11.80;6.90;;;1.90;64.90;;;;;;5112530;28;20134;-79
2021/03/07 00:03:24;;;;;;;14.57;7.22;;;2.00;65.70;;;;;;5112664;28;20054;-80
2021/03/07 00:05:51;;;;;;;13.10;7.32;;;2.00;66.00;;;;;;5112418;28;20122;-80
2021/03/07 00:08:18;;;;;;;10.10;6.20;;;2.10;66.90;;;;;;5112674;28;20130;-80
2021/03/07 00:10:45;;;;;;;13.07;6.60;;;2.10;66.50;;;;;;5112302;28;20135;-79
2021/03/07 00:13:12;;;;;;;9.68;6.05;;;2.20;67.00;;;;;;5111997;28;20485;-78
2021/03/07 00:15:39;;;;;;;9.60;5.70;;;2.20;66.50;;;;;;5112439;28;20131;-79
2021/03/07 00:18:06;;;;;;;8.73;5.43;;;2.30;66.00;;;;;;5094908;28;20044;-80
2021/03/07 00:20:33;;;;;;;10.38;6.10;;;2.20;65.80;;;;;;5112199;28;20040;-80
2021/03/07 00:23:00;;;;;;;9.45;5.13;;;2.20;66.30;;;;;;5111876;28;20047;-80
2021/03/07 00:25:26;;;;;;;9.43;5.32;;;2.20;66.70;;;;;;5111918;28;20043;-80
2021/03/07 00:27:54;;;;;;;9.38;5.65;;;2.20;67.10;;;;;;5112133;28;20052;-79
2021/03/07 00:30:21;;;;;;;10.10;5.97;;;2.10;67.00;;;;;;5110220;28;20134;-79
2021/03/07 00:32:48;;;;;;;8.13;4.90;;;2.20;67.80;;;;;;5112011;28;20134;-80
2021/03/07 00:35:15;;;;;;;9.40;5.65;;;2.10;67.60;;;;;;5111233;28;20138;-80
2021/03/07 00:37:42;;;;;;;11.50;6.05;;;2.10;68.30;;;;;;5111718;28;20040;-79
2021/03/07 00:40:11;;;;;;;10.57;5.75;;;2.10;68.30;;;;;;5093495;28;20497;-79
2021/03/07 00:42:43;;;;;;;9.32;5.65;;;2.00;68.40;;;;;;5093723;28;20150;-79
2021/03/07 00:45:13;;;;;;;11.10;5.63;;;2.00;69.30;;;;;;5094146;27;20420;-79
2021/03/07 00:47:40;;;;;;;11.68;5.95;;;2.00;69.40;;;;;;5132171;27;20462;-80
2021/03/07 00:50:10;;;;;;;11.75;5.80;;;2.10;70.00;;;;;;5131656;27;20568;-80
2021/03/07 00:52:36;;;;;;;9.98;5.72;;;2.00;69.20;;;;;;5132117;27;20130;-80
2021/03/07 00:55:04;;;;;;;9.82;6.05;;;2.00;69.70;;;;;;5132128;27;20092;-80
2021/03/07 00:57:32;;;;;;;8.98;5.72;;;2.00;69.70;;;;;;5113163;27;20489;-79
2021/03/07 00:59:58;;;;;;;9.40;5.72;;;2.00;70.10;;;;;;5089471;28;20135;-80
2021/03/07 01:02:27;;;;;;;9.23;5.15;;;1.90;70.30;;;;;;5090057;28;20130;-79
2021/03/07 01:04:54;;;;;;;8.75;5.60;;;2.00;70.50;;;;;;5088447;28;20135;-79
2021/03/07 01:07:22;;;;;;;8.52;4.90;;;2.00;70.90;;;;;;5089803;28;20522;-79
2021/03/07 01:09:49;;;;;;;9.93;5.82;;;1.90;70.80;;;;;;5090726;28;20139;-80
2021/03/07 01:12:15;;;;;;;9.52;6.10;;;1.80;71.20;;;;;;5089561;28;20097;-80
2021/03/07 01:14:42;;;;;;;8.95;5.50;;;1.80;71.00;;;;;;5090775;28;20404;-80
2021/03/07 01:17:08;;;;;;;11.18;5.70;;;1.80;71.10;;;;;;5089280;28;20044;-80
2021/03/07 01:19:36;;;;;;;8.30;5.25;;;1.80;71.20;;;;;;5090955;28;20443;-78
2021/03/07 01:22:04;;;;;;;8.45;5.63;;;1.80;72.00;;;;;;5090595;28;20127;-78
2021/03/07 01:24:31;;;;;;;10.55;6.38;;;1.80;71.10;;;;;;5090400;28;20122;-78
2021/03/07 01:26:57;;;;;;;10.48;5.90;;;1.80;70.80;;;;;;5090522;28;20479;-80
2021/03/07 01:29:24;;;;;;;9.13;5.10;;;1.60;70.60;;;;;;5090842;28;20135;-80
2021/03/07 01:31:51;;;;;;;10.40;4.90;;;1.50;70.80;;;;;;5090729;28;20481;-79
2021/03/07 01:34:18;;;;;;;10.77;5.97;;;1.30;71.80;;;;;;5090506;28;20048;-79
2021/03/07 01:36:45;;;;;;;10.23;6.57;;;1.30;72.90;;;;;;5090500;28;20048;-78
2021/03/07 01:39:12;;;;;;;10.05;5.95;;;1.20;73.60;;;;;;5090276;28;20516;-79
2021/03/07 01:41:39;;;;;;;10.52;5.63;;;1.20;74.20;;;;;;5090123;28;20468;-79
2021/03/07 01:44:07;;;;;;;13.57;7.18;;;1.10;74.30;;;;;;5090330;28;20100;-79
2021/03/07 01:46:34;;;;;;;13.35;7.53;;;1.00;75.00;;;;;;5090546;28;20056;-79
2021/03/07 01:49:01;;;;;;;11.27;6.13;;;1.00;76.60;;;;;;5089202;28;20472;-79
2021/03/07 01:51:28;;;;;;;11.13;5.95;;;1.00;76.70;;;;;;5089218;28;20167;-79
2021/03/07 01:53:55;;;;;;;12.02;6.43;;;1.00;77.80;;;;;;5090291;28;20054;-79
2021/03/07 01:56:25;;;;;;;12.35;7.13;;;1.00;78.90;;;;;;5088371;28;20127;-80
2021/03/07 01:58:55;;;;;;;10.98;6.57;;;1.00;79.10;;;;;;5093819;28;20134;-80
2021/03/07 02:01:21;;;;;;;12.48;7.20;;;1.10;79.50;;;;;;5110472;28;20525;-79
2021/03/07 02:03:52;;;;;;;12.45;7.28;;;1.10;79.30;;;;;;5110131;28;20183;-80
2021/03/07 02:06:19;;;;;;;11.52;6.40;;;1.10;78.40;;;;;;5111250;28;20076;-81
2021/03/07 02:08:46;;;;;;;12.60;7.20;;;1.20;77.90;;;;;;5109722;28;20071;-79
2021/03/07 02:11:14;;;;;;;12.80;6.82;;;1.10;78.60;;;;;;5110414;28;20548;-79
2021/03/07 02:13:44;;;;;;;11.00;6.45;;;1.20;78.80;;;;;;5092347;28;20123;-80
2021/03/07 02:16:15;;;;;;;10.43;6.47;;;1.10;78.30;;;;;;5110269;28;20051;-80
2021/03/07 02:18:45;;;;;;;10.85;6.90;;;1.10;78.70;;;;;;5110375;28;20083;-80
2021/03/07 02:21:17;;;;;;;12.20;6.57;;;1.10;78.60;;;;;;5093366;28;20131;-80
2021/03/07 02:23:57;;;;;;;12.98;6.20;;;1.10;78.60;;;;;;5110513;28;20110;-79
2021/03/07 02:26:24;;;;;;;10.20;5.93;;;1.00;79.40;;;;;;5110283;28;20500;-79
2021/03/07 02:28:51;;;;;;;11.27;5.95;;;1.00;79.40;;;;;;5110158;28;20150;-79
2021/03/07 02:31:23;;;;;;;10.55;6.40;;;1.00;80.20;;;;;;5110193;28;20102;-79
2021/03/07 02:33:56;;;;;;;11.65;6.57;;;1.10;80.40;;;;;;5110522;28;20058;-79
2021/03/07 02:36:27;;;;;;;10.68;6.10;;;1.10;79.80;;;;;;5092785;28;20139;-78
2021/03/07 02:38:57;;;;;;;9.25;5.88;;;1.10;79.70;;;;;;5109903;28;20044;-78
2021/03/07 02:41:24;;;;;;;11.82;6.28;;;1.20;79.60;;;;;;5109708;28;20040;-78
2021/03/07 02:43:53;;;;;;;12.15;6.40;;;1.20;79.50;;;;;;5110282;28;20062;-78
2021/03/07 02:46:22;;;;;;;11.77;6.80;;;1.10;79.40;;;;;;5110145;28;20055;-79
2021/03/07 02:48:55;;;;;;;12.07;6.70;;;1.30;79.90;;;;;;5110147;28;20048;-78
2021/03/07 02:51:27;;;;;;;12.55;6.93;;;1.20;80.00;;;;;;5109949;28;20047;-78
2021/03/07 02:53:59;;;;;;;12.45;6.97;;;1.20;80.10;;;;;;5112339;28;20610;-79
2021/03/07 02:56:30;;;;;;;11.57;6.40;;;1.20;80.10;;;;;;5114368;28;20058;-79
2021/03/07 02:59:00;;;;;;;13.48;7.18;;;1.20;80.40;;;;;;5113328;28;20119;-79
2021/03/07 03:01:29;;;;;;;12.73;7.32;;;1.20;80.10;;;;;;5114801;28;20070;-79
2021/03/07 03:03:56;;;;;;;13.45;6.70;;;1.20;79.00;;;;;;5116438;28;20139;-79
2021/03/07 03:06:24;;;;;;;11.68;6.93;;;1.10;79.20;;;;;;5116595;28;20139;-79
2021/03/07 03:08:55;;;;;;;12.00;6.45;;;1.10;80.10;;;;;;5116591;28;20142;-81
2021/03/07 03:11:25;;;;;;;13.52;7.00;;;1.10;79.90;;;;;;5098552;28;20051;-81
2021/03/07 03:13:53;;;;;;;10.75;6.35;;;1.00;79.70;;;;;;5116633;28;20138;-80
2021/03/07 03:16:25;;;;;;;13.02;6.93;;;0.90;78.70;;;;;;5116669;28;20127;-80
2021/03/07 03:18:53;;;;;;;12.13;6.60;;;0.90;79.50;;;;;;5116169;28;20123;-80
2021/03/07 03:21:19;;;;;;;14.13;8.10;;;0.80;79.50;;;;;;5116214;28;20134;-80
2021/03/07 03:23:47;;;;;;;10.93;7.13;;;0.70;79.60;;;;;;5116395;28;20052;-80
2021/03/07 03:26:17;;;;;;;11.85;6.57;;;0.60;80.50;;;;;;5116411;28;20088;-80
2021/03/07 03:28:44;;;;;;;12.23;6.80;;;0.70;81.10;;;;;;5116167;28;20130;-79
2021/03/07 03:31:10;;;;;;;11.13;7.00;;;0.60;80.40;;;;;;5098088;28;20059;-81
2021/03/07 03:33:37;;;;;;;13.63;7.50;;;0.60;80.30;;;;;;5099025;28;20139;-80
2021/03/07 03:36:04;;;;;;;10.73;6.72;;;0.50;79.90;;;;;;5116192;28;20138;-79
2021/03/07 03:38:36;;;;;;;14.00;7.90;;;0.30;81.00;;;;;;5115626;28;20131;-79
2021/03/07 03:41:04;;;;;;;13.73;7.95;;;0.30;81.30;;;;;;5115758;28;20139;-80
2021/03/07 03:43:33;;;;;;;12.32;7.28;;;0.20;81.90;;;;;;5115780;28;20126;-79
2021/03/07 03:46:02;;;;;;;12.43;7.40;;;0.10;82.40;;;;;;5116173;28;20188;-80
2021/03/07 03:48:33;;;;;;;12.97;7.13;;;0.10;84.10;;;;;;5126213;27;20047;-79
2021/03/07 03:51:01;;;;;;;14.17;7.23;;;0.00;84.50;;;;;;5136568;27;20047;-79
2021/03/07 03:53:29;;;;;;;11.73;6.73;;;0.00;85.20;;;;;;5136311;27;20133;-79
2021/03/07 03:55:58;;;;;;;12.27;6.90;;;0.00;86.50;;;;;;5135972;27;20134;-80
2021/03/07 03:58:29;;;;;;;13.10;7.23;;;0.10;86.60;;;;;;5124294;27;20462;-79
2021/03/07 04:00:58;;;;;;;10.60;6.30;;;0.20;86.80;;;;;;5115206;28;20474;-79
2021/03/07 04:03:26;;;;;;;12.77;6.90;;;0.20;86.50;;;;;;5113440;28;20054;-77
2021/03/07 04:05:53;;;;;;;12.63;6.80;;;0.20;86.20;;;;;;5113893;28;20048;-81
2021/03/07 04:08:22;;;;;;;11.18;6.72;;;0.30;86.60;;;;;;5094706;28;20050;-80
2021/03/07 04:10:51;;;;;;;12.32;6.85;;;0.20;87.10;;;;;;5112997;28;20130;-80
2021/03/07 04:13:22;;;;;;;11.32;6.90;;;0.30;86.90;;;;;;5078925;28;20139;-80
2021/03/07 04:15:48;;;;;;;10.10;6.63;;;0.30;87.00;;;;;;5111654;28;20127;-78
2021/03/07 04:18:18;;;;;;;12.63;6.82;;;0.30;85.10;;;;;;5094779;28;20134;-78
2021/03/07 04:20:46;;;;;;;13.25;7.05;;;0.20;84.20;;;;;;5094562;28;20151;-79
2021/03/07 04:23:13;;;;;;;13.27;7.60;;;0.10;85.80;;;;;;5113031;28;20571;-80
2021/03/07 04:25:40;;;;;;;11.85;6.93;;;0.10;84.90;;;;;;5112832;28;20575;-79
2021/03/07 04:28:08;;;;;;;13.30;7.20;;;0.00;86.20;;;;;;5061271;28;20058;-79
2021/03/07 04:30:36;;;;;;;12.70;7.00;;;-0.10;87.30;;;;;;5112419;28;20123;-80
2021/03/07 04:33:04;;;;;;;12.00;7.30;;;-0.10;88.00;;;;;;5112706;28;20552;-79
2021/03/07 04:35:33;;;;;;;12.53;7.53;;;-0.10;88.60;;;;;;5112459;28;20054;-81
2021/03/07 04:38:01;;;;;;;13.03;7.07;;;-0.10;88.90;;;;;;5112505;28;20051;-81
2021/03/07 04:40:29;;;;;;;11.70;7.17;;;0.00;89.30;;;;;;5112600;28;20155;-79
2021/03/07 04:42:57;;;;;;;12.90;7.43;;;0.00;88.20;;;;;;5077623;28;20556;-80
2021/03/07 04:45:24;;;;;;;10.50;6.90;;;0.00;87.60;;;;;;5094437;28;20051;-78
2021/03/07 04:47:51;;;;;;;11.03;7.07;;;-0.10;87.60;;;;;;5112231;28;20154;-80
2021/03/07 04:50:18;;;;;;;13.87;7.50;;;0.00;88.70;;;;;;5112233;28;20073;-80
2021/03/07 04:52:46;;;;;;;11.27;7.07;;;0.00;89.30;;;;;;5112586;28;20457;-80
2021/03/07 04:55:14;;;;;;;12.70;7.20;;;0.00;88.70;;;;;;5112455;28;20052;-80
2021/03/07 04:57:41;;;;;;;12.27;7.03;;;0.00;88.60;;;;;;5112582;28;20051;-79
2021/03/07 05:00:11;;;;;;;12.03;7.20;;;0.10;88.50;;;;;;5111714;28;20097;-80
2021/03/07 05:02:39;;;;;;;13.80;7.50;;;0.00;88.30;;;;;;5111666;28;20051;-79
2021/03/07 05:05:08;;;;;;;11.43;6.50;;;0.00;88.20;;;;;;5112012;28;20499;-79
2021/03/07 05:07:35;;;;;;;11.70;6.60;;;0.00;89.20;;;;;;5112285;28;20126;-78
2021/03/07 05:10:05;;;;;;;11.07;6.88;;;0.00;89.40;;;;;;5111764;28;20138;-79
2021/03/07 05:12:31;;;;;;;11.97;7.03;;;0.00;89.60;;;;;;5111475;28;20130;-78
2021/03/07 05:14:58;;;;;;;11.57;6.70;;;0.10;88.80;;;;;;5111704;28;20492;-79
2021/03/07 05:17:27;;;;;;;12.73;7.35;;;0.10;88.80;;;;;;5111497;28;20465;-80
2021/03/07 05:19:53;;;;;;;12.15;7.40;;;0.10;88.80;;;;;;5093929;28;20043;-78
2021/03/07 05:22:20;;;;;;;15.88;8.27;;;0.10;87.00;;;;;;5111598;28;20601;-77
2021/03/07 05:24:47;;;;;;;11.52;6.55;;;0.10;87.30;;;;;;5093524;28;20039;-79
2021/03/07 05:27:15;;;;;;;12.57;6.93;;;0.00;87.80;;;;;;5111743;28;20139;-78
2021/03/07 05:29:41;;;;;;;15.07;7.90;;;-0.10;88.70;;;;;;5110771;28;20515;-81
2021/03/07 05:32:08;;;;;;;12.48;7.22;;;-0.10;87.60;;;;;;5076771;28;20126;-79
2021/03/07 05:34:35;;;;;;;11.68;6.88;;;-0.20;89.40;;;;;;5111849;28;20086;-78
2021/03/07 05:37:02;;;;;;;11.43;7.00;;;-0.20;90.20;;;;;;5111683;28;20472;-80
2021/03/07 05:39:30;;;;;;;12.03;7.10;;;-0.20;90.60;;;;;;5112064;28;20051;-80
2021/03/07 05:41:57;;;;;;;12.77;7.27;;;-0.10;90.50;;;;;;5111241;28;20047;-79
2021/03/07 05:44:25;;;;;;;12.90;7.33;;;-0.10;90.00;;;;;;5111423;28;20130;-80
2021/03/07 05:46:52;;;;;;;12.45;7.25;;;-0.10;90.10;;;;;;5093655;28;20055;-83
2021/03/07 05:49:19;;;;;;;10.87;7.20;;;-0.10;89.30;;;;;;5112315;28;20074;-83
2021/03/07 05:51:45;;;;;;;11.80;7.33;;;-0.20;89.00;;;;;;5094120;28;20131;-83
2021/03/07 05:54:13;;;;;;;11.80;7.20;;;-0.30;90.00;;;;;;5110076;28;20102;-81
2021/03/07 05:56:40;;;;;;;11.50;7.17;;;-0.40;90.60;;;;;;5094462;28;20068;-81
2021/03/07 05:59:08;;;;;;;11.50;7.07;;;-0.40;90.60;;;;;;5072748;28;20052;-82
2021/03/07 06:01:36;;;;;;;11.63;6.80;;;-0.40;91.00;;;;;;5097463;28;20040;-82
2021/03/07 06:04:04;;;;;;;14.13;7.60;;;-0.30;91.00;;;;;;5086171;28;20051;-81
2021/03/07 06:06:31;;;;;;;11.50;6.67;;;-0.20;91.00;;;;;;5091363;28;20140;-82
2021/03/07 06:09:27;;;;;;;11.90;7.00;;;-0.30;90.80;;;;;;5099572;28;20169;-81
2021/03/07 06:11:56;;;;;;;12.10;7.05;;;-0.20;91.10;;;;;;5100150;28;20051;-80
2021/03/07 06:14:26;;;;;;;12.45;7.38;;;-0.20;90.80;;;;;;5101911;28;20043;-82
2021/03/07 06:17:14;;;;;;;13.87;7.53;;;-0.10;90.90;;;;;;5076879;28;20058;-83
2021/03/07 06:19:59;;;;;;;12.47;7.10;;;-0.10;90.60;;;;;;5101091;28;20142;-83
2021/03/07 06:22:28;;;;;;;12.27;7.80;;;-0.20;91.00;;;;;;5111882;28;20371;-82
2021/03/07 06:24:56;;;;;;;11.20;6.77;;;-0.20;90.70;;;;;;5110615;28;20051;-81
2021/03/07 06:27:24;;;;;;;11.87;7.17;;;-0.20;90.70;;;;;;5093860;28;20052;-80
2021/03/07 06:30:00;;;;;;;11.18;7.10;;;-0.20;90.30;;;;;;5095345;28;20052;-81
2021/03/07 06:32:33;;;;;;;12.77;7.05;;;-0.10;90.50;;;;;;5089150;28;20048;-82
2021/03/07 06:35:01;;;;;;;11.75;6.72;;;-0.10;90.70;;;;;;5077711;28;20376;-84
2021/03/07 06:37:28;;;;;;;13.53;7.37;;;-0.10;91.00;;;;;;5099765;28;20131;-84
2021/03/07 06:39:55;;;;;;;12.40;6.95;;;-0.10;91.50;;;;;;5114958;28;20151;-84
2021/03/07 06:42:22;;;;;;;10.77;6.88;;;-0.10;92.00;;;;;;5114320;28;20120;-81
2021/03/07 06:44:58;;;;;;;11.93;7.03;;;-0.20;92.00;;;;;;5093125;28;20474;-82
2021/03/07 06:47:26;;;;;;;13.63;7.25;;;-0.10;91.70;;;;;;5088108;28;20052;-80
2021/03/07 06:50:12;;;;;;;12.18;7.85;;;0.00;91.80;;;;;;5093917;28;20134;-81
2021/03/07 06:53:03;;;;;;;11.40;6.95;;;0.10;90.90;;;;;;5093495;28;20582;-81
2021/03/07 06:55:43;;;;;;;11.32;7.32;;;0.10;91.20;;;;;;5078858;28;20040;-80
2021/03/07 06:58:15;;;;;;;11.45;7.07;;;0.10;91.30;;;;;;5093821;28;20067;-80
2021/03/07 07:00:42;;;;;;;11.80;6.65;;;0.20;90.90;;;;;;5078954;28;20054;-81
2021/03/07 07:03:11;;;;;;;12.37;7.23;;;0.20;91.00;;;;;;5108476;28;20473;-81
2021/03/07 07:05:42;;;;;;;11.70;6.45;;;0.40;90.90;;;;;;5099640;28;20050;-80
2021/03/07 07:08:11;;;;;;;12.15;7.32;;;0.30;91.00;;;;;;5113412;28;20075;-80
2021/03/07 07:11:03;;;;;;;12.27;6.95;;;0.40;90.40;;;;;;5096759;28;20055;-81
2021/03/07 07:13:32;;;;;;;16.02;7.88;;;0.40;90.30;;;;;;5088740;28;20047;-81
2021/03/07 07:16:03;;;;;;;11.32;6.75;;;0.50;90.00;;;;;;5111768;28;20066;-80
2021/03/07 07:18:32;;;;;;;12.65;7.78;;;0.30;90.70;;;;;;5109699;28;20569;-81
2021/03/07 07:21:01;;;;;;;13.98;7.63;;;0.40;90.70;;;;;;5093197;28;20554;-80
2021/03/07 07:23:28;;;;;;;12.80;7.68;;;0.40;90.60;;;;;;5110345;28;20502;-82
2021/03/07 07:25:55;;;;;;;12.43;7.33;;;0.30;90.80;;;;;;5093643;28;20560;-81
2021/03/07 07:28:24;;;;;;;12.18;7.13;;;0.30;90.70;;;;;;5113945;28;20138;-82
2021/03/07 07:30:57;;;;;;;11.18;6.65;;;0.30;90.80;;;;;;5100745;28;20051;-81
2021/03/07 07:33:35;;;;;;;12.50;7.10;;;0.30;91.10;;;;;;5101773;28;20086;-81
2021/03/07 07:36:06;;;;;;;11.40;7.22;;;0.40;91.50;;;;;;5096372;28;20122;-82
2021/03/07 07:38:34;;;;;;;11.27;7.35;;;0.40;91.60;;;;;;5091417;28;20048;-82
2021/03/07 07:41:00;;;;;;;11.97;6.87;;;0.60;91.80;;;;;;5111916;28;20481;-84
2021/03/07 07:43:27;;;;;;;14.25;7.93;;;0.60;92.20;;;;;;5109287;28;20106;-85
2021/03/07 07:46:12;;;;;;;10.55;6.60;;;0.80;91.70;;;;;;5086489;27;20055;-87
2021/03/07 07:48:40;;;;;;;11.05;6.55;;;0.90;90.50;;;;;;5082989;28;20040;-85
2021/03/07 07:51:31;;;;;;;11.18;6.60;;;0.90;90.70;;;;;;5089561;28;20071;-85
2021/03/07 07:53:58;;;;;;;10.82;6.40;;;1.00;90.70;;;;;;5086687;28;20499;-85
2021/03/07 07:56:40;;;;;;;10.48;6.47;;;1.20;90.20;;;;;;5077270;28;20044;-85
2021/03/07 07:59:09;;;;;;;11.32;6.95;;;1.30;89.60;;;;;;5093397;28;20143;-87
2021/03/07 08:01:52;;;;;;;10.70;5.97;;;1.50;88.60;;;;;;5093487;28;20055;-85
2021/03/07 08:04:37;;;;;;;11.38;7.00;;;1.50;88.80;;;;;;5079166;28;20048;-85
2021/03/07 08:07:06;;;;;;;12.27;7.00;;;1.70;88.90;;;;;;5083000;28;20082;-85
2021/03/07 08:09:55;;;;;;;11.02;6.82;;;1.80;87.20;;;;;;5101188;28;20048;-84
2021/03/07 08:12:50;;;;;;;12.02;6.80;;;1.80;87.30;;;;;;5083666;28;20044;-85
2021/03/07 08:15:46;;;;;;;12.10;7.07;;;1.90;86.40;;;;;;5076062;28;20416;-85
2021/03/07 08:18:17;;;;;;;11.02;6.72;;;2.00;86.20;;;;;;5093545;28;20566;-83
2021/03/07 08:21:01;;;;;;;11.27;6.72;;;2.00;86.30;;;;;;5075874;28;20075;-84
2021/03/07 08:23:29;;;;;;;10.68;7.03;;;2.10;86.00;;;;;;5093121;28;20123;-85
2021/03/07 08:26:01;;;;;;;11.57;7.20;;;2.20;86.00;;;;;;5092891;28;20134;-85
2021/03/07 08:28:42;;;;;;;10.27;6.57;;;2.30;85.40;;;;;;5092902;28;20093;-82
2021/03/07 08:31:34;;;;;;;12.77;6.90;;;2.30;85.10;;;;;;5092220;28;20124;-80
2021/03/07 08:34:22;;;;;;;11.60;6.85;;;2.40;84.70;;;;;;5071726;28;20060;-81
2021/03/07 08:36:59;;;;;;;12.07;7.40;;;2.50;84.10;;;;;;5075125;28;20571;-81
2021/03/07 08:39:28;;;;;;;12.65;7.35;;;2.60;83.50;;;;;;5092280;28;20141;-81
2021/03/07 08:42:00;;;;;;;11.10;6.63;;;2.50;84.80;;;;;;5084649;28;20055;-83
2021/03/07 08:44:28;;;;;;;12.07;7.50;;;2.60;85.40;;;;;;5055051;28;20566;-84
2021/03/07 08:46:55;;;;;;;12.75;7.53;;;2.70;85.40;;;;;;5072367;28;20052;-79
2021/03/07 08:49:28;;;;;;;14.32;8.57;;;2.70;85.10;;;;;;5071441;28;20063;-77
2021/03/07 08:52:01;;;;;;;12.02;7.38;;;2.80;84.90;;;;;;5086101;28;21800;-77
2021/03/07 08:54:32;;;;;;;12.75;7.45;;;2.80;84.20;;;;;;5091399;28;20492;-77
2021/03/07 08:57:06;;;;;;;11.02;6.90;;;2.80;84.20;;;;;;5080004;28;20082;-77
2021/03/07 08:59:34;;;;;;;12.90;7.10;;;2.80;84.20;;;;;;5083290;28;20143;-77
2021/03/07 09:02:04;;;;;;;11.75;7.15;;;2.90;84.40;;;;;;5091153;28;20527;-77
2021/03/07 09:04:40;;;;;;;12.02;6.63;;;3.00;84.80;;;;;;5073063;28;20416;-77
2021/03/07 09:07:07;;;;;;;10.90;5.97;;;3.10;82.50;;;;;;5091267;28;20044;-76
2021/03/07 09:09:40;;;;;;;10.35;5.68;;;3.10;81.20;;;;;;5090921;28;20046;-77
2021/03/07 09:12:09;;;;;;;10.60;5.85;;;3.10;80.90;;;;;;5073017;28;20040;-78
2021/03/07 09:14:37;;;;;;;9.98;5.70;;;3.30;81.80;;;;;;5057019;28;20126;-76
2021/03/07 09:17:07;;;;;;;9.50;5.97;;;3.40;81.90;;;;;;5072726;28;20135;-77
2021/03/07 09:19:37;;;;;;;10.45;6.50;;;3.60;82.10;;;;;;5090487;28;20044;-77
2021/03/07 09:22:22;;;;;;;10.77;6.93;;;3.90;80.80;;;;;;5073071;28;20134;-78
2021/03/07 09:25:03;;;;;;;11.02;5.93;;;4.00;80.20;;;;;;5090552;28;20516;-75
2021/03/07 09:27:32;;;;;;;10.23;6.78;;;4.20;80.40;;;;;;5090939;28;20047;-79
2021/03/07 09:30:10;;;;;;;8.57;5.63;;;4.40;80.00;;;;;;5091005;28;20135;-79
2021/03/07 09:32:39;;;;;;;10.07;6.10;;;4.60;79.20;;;;;;5089056;28;20436;-77
2021/03/07 09:35:22;;;;;;;9.68;6.03;;;4.70;78.00;;;;;;5071546;28;20130;-78
2021/03/07 09:38:02;;;;;;;9.57;6.57;;;5.00;77.00;;;;;;5090583;28;20440;-78
2021/03/07 09:40:33;;;;;;;10.20;6.50;;;5.10;76.60;;;;;;5090376;28;20133;-78
2021/03/07 09:43:02;;;;;;;9.27;5.68;;;5.20;75.50;;;;;;5072812;28;20101;-78
2021/03/07 09:45:30;;;;;;;9.63;5.97;;;5.30;75.20;;;;;;5090829;28;20090;-82
2021/03/07 09:47:58;;;;;;;10.02;6.10;;;5.30;74.80;;;;;;5090541;28;20127;-80
2021/03/07 09:50:25;;;;;;;12.23;6.95;;;5.40;75.40;;;;;;5089954;28;20120;-80
2021/03/07 09:52:54;;;;;;;10.13;6.25;;;5.50;73.20;;;;;;5090506;28;20052;-79
2021/03/07 09:55:25;;;;;;;10.18;6.47;;;5.50;73.30;;;;;;5090163;28;20044;-79
2021/03/07 09:58:04;;;;;;;9.63;5.97;;;5.60;72.50;;;;;;5071691;28;20036;-80
2021/03/07 10:00:32;;;;;;;10.73;6.72;;;5.70;72.40;;;;;;5067274;28;20526;-78
2021/03/07 10:02:59;;;;;;;11.20;6.63;;;5.70;72.20;;;;;;5066620;28;20048;-78
2021/03/07 10:05:26;;;;;;;9.98;6.55;;;5.70;71.50;;;;;;5070192;28;20564;-78
2021/03/07 10:07:53;;;;;;;9.82;6.43;;;5.80;71.20;;;;;;5070624;28;20091;-78
2021/03/07 10:10:31;;;;;;;9.70;6.85;;;5.80;70.80;;;;;;5070295;28;20058;-79
2021/03/07 10:13:00;;;;;;;10.65;6.70;;;5.80;70.60;;;;;;5068802;28;20490;-78
2021/03/07 10:15:29;;;;;;;10.25;6.28;;;5.90;70.00;;;;;;5068899;28;20056;-78
2021/03/07 10:17:56;;;;;;;10.05;6.63;;;5.90;69.80;;;;;;5070159;28;20075;-78
2021/03/07 10:20:24;;;;;;;11.32;7.03;;;6.00;69.00;;;;;;5069746;28;20209;-77
2021/03/07 10:22:56;;;;;;;9.30;6.07;;;5.90;68.80;;;;;;5069902;28;20135;-77
2021/03/07 10:25:26;;;;;;;10.15;6.93;;;6.00;69.40;;;;;;5069979;28;20052;-78
2021/03/07 10:28:10;;;;;;;11.32;6.78;;;6.00;68.80;;;;;;5070233;28;20498;-78
2021/03/07 10:30:38;;;;;;;11.20;7.30;;;6.10;68.70;;;;;;5069540;28;20040;-78
2021/03/07 10:33:15;;;;;;;10.65;7.10;;;6.30;68.00;;;;;;5069963;28;20083;-78
2021/03/07 10:36:01;;;;;;;9.50;6.57;;;6.30;68.40;;;;;;5070267;28;20155;-78
2021/03/07 10:38:28;;;;;;;11.88;7.57;;;6.40;68.80;;;;;;5070218;28;20483;-78
2021/03/07 10:40:55;;;;;;;10.90;6.75;;;6.50;69.00;;;;;;5069935;28;20136;-78
2021/03/07 10:43:24;;;;;;;11.65;7.10;;;6.50;68.40;;;;;;5070206;28;20059;-78
2021/03/07 10:45:50;;;;;;;10.43;7.18;;;6.60;68.60;;;;;;5070044;28;20052;-78
2021/03/07 10:48:18;;;;;;;11.48;7.45;;;6.80;68.30;;;;;;5069787;28;20048;-78
2021/03/07 10:50:47;;;;;;;15.65;10.00;;;6.90;67.70;;;;;;5068851;28;20131;-78
2021/03/07 10:53:17;;;;;;;14.68;8.73;;;7.10;67.10;;;;;;5070173;28;20147;-78
2021/03/07 10:55:50;;;;;;;12.27;7.80;;;7.10;66.10;;;;;;5069769;28;20052;-78
2021/03/07 10:58:17;;;;;;;12.65;8.32;;;7.20;66.70;;;;;;5070005;28;20044;-78
2021/03/07 11:00:45;;;;;;;11.77;7.85;;;7.30;65.30;;;;;;5089633;28;20167;-78
2021/03/07 11:03:11;;;;;;;11.23;7.53;;;7.40;65.20;;;;;;5090068;28;20485;-79
2021/03/07 11:05:38;;;;;;;12.50;8.10;;;7.50;65.40;;;;;;5089751;28;20141;-78
2021/03/07 11:08:06;;;;;;;13.57;7.85;;;7.60;65.00;;;;;;5089744;28;20044;-79
2021/03/07 11:10:33;;;;;;;13.18;8.35;;;7.60;64.90;;;;;;5071945;28;20044;-78
2021/03/07 11:12:59;;;;;;;12.88;8.27;;;7.80;65.30;;;;;;5090032;28;20054;-79
2021/03/07 11:15:26;;;;;;;11.77;8.10;;;7.90;64.10;;;;;;5092525;28;20143;-78
2021/03/07 11:17:53;;;;;;;13.13;8.57;;;7.90;63.50;;;;;;5093180;28;20099;-79
2021/03/07 11:20:20;;;;;;;11.52;7.90;;;7.90;63.60;;;;;;5093290;28;20127;-78
2021/03/07 11:22:50;;;;;;;14.27;9.13;;;7.90;64.30;;;;;;5093544;28;20080;-78
2021/03/07 11:25:16;;;;;;;12.07;7.93;;;7.90;64.20;;;;;;5075226;28;20070;-78
2021/03/07 11:27:43;;;;;;;12.77;8.57;;;7.90;64.20;;;;;;5075337;28;20044;-78
2021/03/07 11:30:12;;;;;;;12.95;8.90;;;8.00;64.50;;;;;;5075217;28;20043;-79
2021/03/07 11:32:39;;;;;;;12.65;8.20;;;8.00;64.60;;;;;;5092465;28;20044;-78
2021/03/07 11:35:08;;;;;;;12.93;8.07;;;8.20;63.50;;;;;;5092915;28;20135;-78
2021/03/07 11:37:37;;;;;;;12.73;8.40;;;8.20;63.40;;;;;;5091730;28;20413;-79
2021/03/07 11:40:05;;;;;;;12.98;8.35;;;8.30;63.20;;;;;;5074886;28;20051;-79
2021/03/07 11:42:32;;;;;;;12.68;7.35;;;8.40;63.50;;;;;;5073812;28;20054;-79
2021/03/07 11:45:01;;;;;;;13.70;9.25;;;8.40;63.50;;;;;;5074993;28;20052;-80
2021/03/07 11:47:28;;;;;;;13.20;8.52;;;8.40;63.90;;;;;;5091489;28;20672;-79
2021/03/07 11:49:54;;;;;;;12.68;9.02;;;8.40;63.50;;;;;;5091844;28;20054;-80
2021/03/07 11:52:22;;;;;;;12.27;8.15;;;8.30;63.60;;;;;;5092165;28;20464;-78
2021/03/07 11:54:49;;;;;;;11.85;8.25;;;8.30;63.90;;;;;;5074588;28;20131;-78
2021/03/07 11:57:16;;;;;;;12.00;8.32;;;8.40;63.90;;;;;;5092136;28;20107;-81
2021/03/07 11:59:42;;;;;;;12.32;8.32;;;8.60;64.60;;;;;;5065429;28;20052;-79
2021/03/07 12:02:10;;;;;;;14.05;9.20;;;8.70;63.80;;;;;;5091869;28;20178;-82
2021/03/07 12:04:37;;;;;;;12.55;8.70;;;8.80;63.50;;;;;;5092150;28;20075;-82
2021/03/07 12:07:04;;;;;;;14.30;9.10;;;8.90;62.60;;;;;;5092080;28;20126;-82
2021/03/07 12:09:31;;;;;;;12.57;8.80;;;8.90;61.90;;;;;;5092015;28;20062;-82
2021/03/07 12:11:58;;;;;;;12.48;8.05;;;8.90;61.50;;;;;;5091155;28;20139;-79
2021/03/07 12:14:25;;;;;;;11.88;8.55;;;9.10;61.50;;;;;;5091734;28;20048;-79
2021/03/07 12:16:53;;;;;;;11.82;8.13;;;9.10;61.90;;;;;;5092117;28;20083;-83
2021/03/07 12:19:20;;;;;;;11.65;8.30;;;9.20;62.10;;;;;;5091078;28;20577;-83
2021/03/07 12:21:47;;;;;;;12.20;8.05;;;9.30;62.10;;;;;;5091272;28;20533;-78
2021/03/07 12:24:13;;;;;;;14.02;9.05;;;9.40;62.20;;;;;;5090928;28;20442;-78
2021/03/07 12:26:41;;;;;;;12.63;8.45;;;9.40;61.20;;;;;;5090032;28;20130;-78
2021/03/07 12:29:08;;;;;;;11.75;8.05;;;9.50;60.80;;;;;;5091885;28;20119;-78
2021/03/07 12:31:36;;;;;;;10.90;7.82;;;9.60;60.20;;;;;;5091109;28;20135;-78
2021/03/07 12:34:03;;;;;;;13.82;8.48;;;9.70;60.10;;;;;;5072866;28;20047;-78
2021/03/07 12:36:30;;;;;;;13.38;9.15;;;9.90;57.90;;;;;;5091205;28;20501;-78
2021/03/07 12:38:57;;;;;;;14.85;8.40;;;10.10;57.40;;;;;;5091510;28;20044;-78
2021/03/07 12:41:24;;;;;;;11.05;7.88;;;10.20;57.50;;;;;;5090901;28;20047;-78
2021/03/07 12:43:51;;;;;;;12.30;8.80;;;10.30;57.30;;;;;;5091215;28;20064;-78
2021/03/07 12:46:19;;;;;;;11.75;8.25;;;10.40;56.80;;;;;;5090648;28;20094;-78
2021/03/07 12:48:46;;;;;;;11.30;8.18;;;10.50;57.40;;;;;;5089239;28;20093;-78
2021/03/07 12:51:13;;;;;;;12.57;8.20;;;10.70;56.60;;;;;;5090880;28;20511;-78
2021/03/07 12:53:39;;;;;;;11.50;7.78;;;11.00;55.70;;;;;;5049770;28;20048;-77
2021/03/07 12:56:07;;;;;;;12.27;8.18;;;11.10;55.20;;;;;;5090675;28;20087;-77
2021/03/07 12:58:34;;;;;;;11.10;8.05;;;11.30;55.50;;;;;;5091964;28;20404;-78